createdAt,value
2023-01-22T00:01:04.489Z,97278.06
2023-01-22T00:03:32.248Z,97271.97
2023-01-22T00:05:59.964Z,97283.09
2023-01-22T00:08:27.740Z,97282.09
2023-01-22T00:10:55.538Z,97287.56
2023-01-22T00:13:24.003Z,97289.53
2023-01-22T00:15:51.888Z,97284.69
2023-01-22T00:18:19.749Z,97287.59
2023-01-22T00:20:48.562Z,97294.16
2023-01-22T00:23:16.461Z,97303.06
2023-01-22T00:25:44.156Z,97306.78
2023-01-22T00:28:12.259Z,97306.97
2023-01-22T00:30:39.947Z,97301.16
2023-01-22T00:33:07.786Z,97299.31
2023-01-22T00:35:36.356Z,97300.84
2023-01-22T00:38:04.246Z,97306.38
2023-01-22T00:40:33.242Z,97296.06
2023-01-22T00:43:00.983Z,97307.03
2023-01-22T00:45:30.676Z,97314.50
2023-01-22T00:47:58.416Z,97314.53
2023-01-22T00:50:26.153Z,97310.34
2023-01-22T00:52:53.949Z,97322.53
2023-01-22T00:55:21.630Z,97324.34
2023-01-22T00:57:49.420Z,97333.25
2023-01-22T01:00:18.490Z,97337.81
2023-01-22T01:03:06.434Z,97336.50
2023-01-22T01:05:34.199Z,97343.78
2023-01-22T01:08:01.848Z,97349.50
2023-01-22T01:10:29.613Z,97355.59
2023-01-22T01:12:57.323Z,97359.72
2023-01-22T01:15:25.250Z,97363.06
2023-01-22T01:17:52.940Z,97355.38
2023-01-22T01:20:20.810Z,97348.50
2023-01-22T01:22:48.589Z,97340.63
2023-01-22T01:25:16.411Z,97344.94
2023-01-22T01:27:44.119Z,97360.56
2023-01-22T01:30:12.094Z,97363.09
2023-01-22T01:32:39.793Z,97358.06
2023-01-22T01:35:07.988Z,97361.78
2023-01-22T01:37:36.346Z,97389.63
2023-01-22T01:40:04.573Z,97380.44
2023-01-22T01:42:34.366Z,97382.25
2023-01-22T01:45:28.518Z,97384.25
2023-01-22T01:48:11.254Z,97383.13
2023-01-22T01:50:42.494Z,97384.97
2023-01-22T01:53:10.294Z,97380.31
2023-01-22T01:55:37.975Z,97373.47
2023-01-22T01:58:10.455Z,97372.56
2023-01-22T02:00:38.311Z,97372.13
2023-01-22T02:03:06.044Z,97363.97
2023-01-22T02:05:37.019Z,97378.66
2023-01-22T02:08:05.626Z,97378.00
2023-01-22T02:10:33.588Z,97380.56
2023-01-22T02:13:03.819Z,97374.31
2023-01-22T02:15:31.579Z,97376.84
2023-01-22T02:17:59.249Z,97380.91
2023-01-22T02:20:27.055Z,97378.66
2023-01-22T02:22:54.721Z,97380.41
2023-01-22T02:25:22.595Z,97386.22
2023-01-22T02:27:50.395Z,97386.03
2023-01-22T02:30:21.455Z,97387.34
2023-01-22T02:32:49.176Z,97383.88
2023-01-22T02:35:17.190Z,97375.09
2023-01-22T02:37:44.861Z,97384.50
2023-01-22T02:40:13.098Z,97379.22
2023-01-22T02:42:41.944Z,97382.31
2023-01-22T02:45:10.143Z,97375.56
2023-01-22T02:47:37.894Z,97372.81
2023-01-22T02:50:06.901Z,97372.41
2023-01-22T02:52:34.583Z,97387.72
2023-01-22T02:55:02.345Z,97402.38
2023-01-22T02:57:31.302Z,97394.03
2023-01-22T02:59:59.122Z,97403.28
2023-01-22T03:02:26.908Z,97407.47
2023-01-22T03:05:03.315Z,97408.66
2023-01-22T03:07:41.939Z,97412.81
2023-01-22T03:10:15.793Z,97401.88
2023-01-22T03:13:03.084Z,97405.84
2023-01-22T03:15:49.319Z,97397.13
2023-01-22T03:18:37.399Z,97407.19
2023-01-22T03:21:18.635Z,97396.69
2023-01-22T03:23:47.738Z,97400.94
2023-01-22T03:26:16.112Z,97405.59
2023-01-22T03:28:44.290Z,97413.13
2023-01-22T03:31:12.772Z,97411.53
2023-01-22T03:33:41.230Z,97412.47
2023-01-22T03:36:11.331Z,97400.28
2023-01-22T03:38:42.555Z,97414.75
2023-01-22T03:41:15.608Z,97410.16
2023-01-22T03:43:45.081Z,97416.66
2023-01-22T03:46:17.754Z,97423.13
2023-01-22T03:48:50.950Z,97414.28
2023-01-22T03:51:18.928Z,97432.09
2023-01-22T03:53:46.946Z,97432.44
2023-01-22T03:56:17.270Z,97427.28
2023-01-22T03:58:45.092Z,97431.78
2023-01-22T04:01:15.743Z,97431.34
2023-01-22T04:03:43.512Z,97427.63
2023-01-22T04:06:12.658Z,97431.34
2023-01-22T04:08:42.182Z,97424.78
2023-01-22T04:11:11.099Z,97430.00
2023-01-22T04:13:40.103Z,97438.38
2023-01-22T04:16:08.917Z,97441.44
2023-01-22T04:18:56.551Z,97447.00
2023-01-22T04:21:50.639Z,97455.56
2023-01-22T04:24:20.291Z,97456.97
2023-01-22T04:26:49.005Z,97460.19
2023-01-22T04:29:19.603Z,97462.53
2023-01-22T04:31:47.680Z,97457.16
2023-01-22T04:34:34.157Z,97461.91
2023-01-22T04:37:13.987Z,97463.78
2023-01-22T04:39:41.713Z,97456.72
2023-01-22T04:42:11.174Z,97459.44
2023-01-22T04:44:38.978Z,97460.81
2023-01-22T04:47:08.672Z,97472.00
2023-01-22T04:49:38.370Z,97469.13
2023-01-22T04:52:11.632Z,97475.16
2023-01-22T04:54:39.510Z,97483.69
2023-01-22T04:57:08.535Z,97476.28
2023-01-22T04:59:36.353Z,97479.25
2023-01-22T05:02:04.181Z,97484.72
2023-01-22T05:04:33.069Z,97483.91
2023-01-22T05:07:01.040Z,97487.50
2023-01-22T05:09:28.812Z,97491.53
2023-01-22T05:12:00.603Z,97491.03
2023-01-22T05:14:33.477Z,97506.69
2023-01-22T05:17:02.603Z,97501.50
2023-01-22T05:19:30.321Z,97496.91
2023-01-22T05:21:58.409Z,97494.41
2023-01-22T05:24:26.265Z,97490.25
2023-01-22T05:26:54.447Z,97507.91
2023-01-22T05:29:28.445Z,97502.25
2023-01-22T05:32:08.423Z,97503.56
2023-01-22T05:34:42.448Z,97500.69
2023-01-22T05:37:12.983Z,97495.66
2023-01-22T05:39:41.070Z,97505.78
2023-01-22T05:42:14.668Z,97517.53
2023-01-22T05:44:44.249Z,97527.41
2023-01-22T05:47:13.479Z,97526.44
2023-01-22T05:50:07.443Z,97530.75
2023-01-22T05:52:36.506Z,97526.31
2023-01-22T05:55:04.504Z,97538.56
2023-01-22T05:57:39.175Z,97549.78
2023-01-22T06:00:08.560Z,97553.28
2023-01-22T06:02:44.319Z,97555.59
2023-01-22T06:05:14.706Z,97557.94
2023-01-22T06:07:43.601Z,97571.31
2023-01-22T06:10:11.585Z,97573.72
2023-01-22T06:12:45.995Z,97569.03
2023-01-22T06:15:13.814Z,97573.06
2023-01-22T06:17:46.762Z,97573.97
2023-01-22T06:20:15.305Z,97580.66
2023-01-22T06:22:43.111Z,97583.16
2023-01-22T06:25:11.538Z,97594.94
2023-01-22T06:27:59.166Z,97591.53
2023-01-22T06:30:27.067Z,97597.47
2023-01-22T06:32:55.723Z,97595.59
2023-01-22T06:35:23.523Z,97592.06
2023-01-22T06:37:51.823Z,97590.16
2023-01-22T06:40:19.913Z,97600.59
2023-01-22T06:42:49.612Z,97606.44
2023-01-22T06:45:18.171Z,97603.69
2023-01-22T06:47:51.363Z,97604.88
2023-01-22T06:50:19.345Z,97619.19
2023-01-22T06:52:47.287Z,97611.94
2023-01-22T06:55:16.416Z,97615.66
2023-01-22T06:57:44.325Z,97622.09
2023-01-22T07:00:12.240Z,97620.75
2023-01-22T07:02:41.109Z,97622.38
2023-01-22T07:05:09.054Z,97619.81
2023-01-22T07:07:36.761Z,97628.34
2023-01-22T07:10:04.892Z,97631.06
2023-01-22T07:12:32.685Z,97637.91
2023-01-22T07:15:00.360Z,97637.09
2023-01-22T07:17:28.129Z,97640.44
2023-01-22T07:19:55.821Z,97647.94
2023-01-22T07:22:23.677Z,97642.03
2023-01-22T07:24:52.205Z,97652.00
2023-01-22T07:27:19.971Z,97648.53
2023-01-22T07:29:50.004Z,97641.47
2023-01-22T07:32:17.775Z,97645.81
2023-01-22T07:34:45.448Z,97664.88
2023-01-22T07:37:13.159Z,97652.00
2023-01-22T07:39:40.839Z,97666.06
2023-01-22T07:42:08.616Z,97677.38
2023-01-22T07:44:40.301Z,97668.94
2023-01-22T07:47:08.025Z,97676.47
2023-01-22T07:49:35.815Z,97671.19
2023-01-22T07:52:03.653Z,97680.41
2023-01-22T07:54:33.732Z,97675.31
2023-01-22T07:57:01.407Z,97670.59
2023-01-22T07:59:29.474Z,97665.16
2023-01-22T08:01:57.286Z,97675.56
2023-01-22T08:04:25.229Z,97687.91
2023-01-22T08:06:52.915Z,97680.72
2023-01-22T08:09:24.945Z,97678.19
2023-01-22T08:11:53.117Z,97695.72
2023-01-22T08:14:20.820Z,97700.56
2023-01-22T08:16:48.574Z,97683.03
2023-01-22T08:19:16.343Z,97691.69
2023-01-22T08:21:44.036Z,97695.38
2023-01-22T08:24:12.687Z,97709.13
2023-01-22T08:26:40.394Z,97696.78
2023-01-22T08:29:08.112Z,97695.91
2023-01-22T08:31:35.862Z,97708.50
2023-01-22T08:34:03.687Z,97710.50
2023-01-22T08:36:31.408Z,97704.16
2023-01-22T08:38:59.139Z,97711.84
2023-01-22T08:41:26.834Z,97707.19
2023-01-22T08:43:54.603Z,97712.41
2023-01-22T08:46:22.361Z,97706.84
2023-01-22T08:48:50.827Z,97715.66
2023-01-22T08:51:18.654Z,97714.00
2023-01-22T08:53:46.459Z,97709.25
2023-01-22T08:56:14.167Z,97703.78
2023-01-22T08:58:41.870Z,97722.97
2023-01-22T09:01:15.987Z,97718.81
2023-01-22T09:03:43.947Z,97715.34
2023-01-22T09:06:11.699Z,97711.06
2023-01-22T09:08:39.403Z,97706.00
2023-01-22T09:11:07.131Z,97712.44
2023-01-22T09:13:34.928Z,97715.34
2023-01-22T09:16:02.672Z,97707.91
2023-01-22T09:18:30.451Z,97699.03
2023-01-22T09:20:59.611Z,97689.53
2023-01-22T09:23:27.378Z,97691.44
2023-01-22T09:25:55.066Z,97701.66
2023-01-22T09:28:22.824Z,97697.59
2023-01-22T09:30:50.661Z,97689.53
2023-01-22T09:33:18.431Z,97686.38
2023-01-22T09:35:46.082Z,97682.59
2023-01-22T09:38:14.082Z,97681.25
2023-01-22T09:40:44.499Z,97674.97
2023-01-22T09:43:36.551Z,97690.69
2023-01-22T09:46:06.829Z,97679.91
2023-01-22T09:48:41.626Z,97673.38
2023-01-22T09:51:13.198Z,97695.97
2023-01-22T09:53:41.172Z,97687.78
2023-01-22T09:56:14.863Z,97684.69
2023-01-22T09:58:42.636Z,97675.44
2023-01-22T10:01:10.320Z,97676.66
2023-01-22T10:03:40.814Z,97679.84
2023-01-22T10:06:14.606Z,97669.94
2023-01-22T10:09:00.654Z,97680.63
2023-01-22T10:11:28.422Z,97677.56
2023-01-22T10:13:57.974Z,97678.94
2023-01-22T10:16:25.763Z,97675.50
2023-01-22T10:19:05.042Z,97676.53
2023-01-22T10:21:34.694Z,97663.97
2023-01-22T10:24:02.422Z,97667.75
2023-01-22T10:26:36.414Z,97668.13
2023-01-22T10:29:10.087Z,97669.22
2023-01-22T10:31:42.574Z,97678.22
2023-01-22T10:34:11.258Z,97679.31
2023-01-22T10:36:38.957Z,97679.09
2023-01-22T10:39:11.156Z,97666.59
2023-01-22T10:41:40.111Z,97681.16
2023-01-22T10:44:26.364Z,97673.19
2023-01-22T10:46:54.794Z,97668.69
2023-01-22T10:49:30.225Z,97667.97
2023-01-22T10:51:59.108Z,97658.50
2023-01-22T10:54:31.008Z,97668.84
2023-01-22T10:57:37.072Z,97668.41
2023-01-22T11:00:10.902Z,97668.78
2023-01-22T11:02:41.241Z,97668.09
2023-01-22T11:05:19.229Z,97667.56
2023-01-22T11:07:48.532Z,97678.44
2023-01-22T11:10:45.623Z,97674.09
2023-01-22T11:13:39.037Z,97678.84
2023-01-22T11:16:16.258Z,97681.25
2023-01-22T11:18:54.569Z,97679.09
2023-01-22T11:21:44.398Z,97680.09
2023-01-22T11:24:14.418Z,97676.53
2023-01-22T11:27:07.104Z,97669.41
2023-01-22T11:29:45.387Z,97666.88
2023-01-22T11:32:25.453Z,97665.75
2023-01-22T11:35:34.959Z,97657.97
2023-01-22T11:38:38.927Z,97658.34
2023-01-22T11:41:13.119Z,97657.13
2023-01-22T11:43:55.806Z,97662.03
2023-01-22T11:47:04.418Z,97662.66
2023-01-22T11:49:56.901Z,97657.97
2023-01-22T11:52:41.021Z,97659.19
2023-01-22T11:55:43.083Z,97660.75
2023-01-22T11:58:35.116Z,97668.03
2023-01-22T12:01:17.822Z,97674.22
2023-01-22T12:03:53.062Z,97657.53
2023-01-22T12:07:02.603Z,97655.47
2023-01-22T12:09:56.862Z,97652.81
2023-01-22T12:12:34.563Z,97662.53
2023-01-22T12:15:20.830Z,97657.03
2023-01-22T12:18:06.608Z,97660.72
2023-01-22T12:20:49.285Z,97669.25
2023-01-22T12:23:30.935Z,97656.63
2023-01-22T12:26:15.077Z,97669.88
2023-01-22T12:28:56.891Z,97675.56
2023-01-22T12:31:34.630Z,97667.59
2023-01-22T12:34:04.791Z,97683.00
2023-01-22T12:36:32.706Z,97676.75
2023-01-22T12:39:02.718Z,97686.09
2023-01-22T12:41:51.947Z,97680.56
2023-01-22T12:44:19.645Z,97688.66
2023-01-22T12:47:07.516Z,97694.38
2023-01-22T12:49:45.373Z,97693.19
2023-01-22T12:52:32.537Z,97692.00
2023-01-22T12:55:01.050Z,97688.88
2023-01-22T12:57:41.511Z,97682.19
2023-01-22T13:00:22.891Z,97682.03
2023-01-22T13:02:50.811Z,97686.03
2023-01-22T13:05:30.540Z,97691.47
2023-01-22T13:08:24.005Z,97689.28
2023-01-22T13:10:59.894Z,97691.81
2023-01-22T13:13:27.503Z,97698.00
2023-01-22T13:16:15.403Z,97696.41
2023-01-22T13:18:55.906Z,97705.25
2023-01-22T13:21:30.891Z,97701.66
2023-01-22T13:24:03.210Z,97698.97
2023-01-22T13:26:33.516Z,97697.66
2023-01-22T13:29:03.851Z,97713.44
2023-01-22T13:31:32.917Z,97710.16
2023-01-22T13:34:08.810Z,97726.31
2023-01-22T13:36:44.259Z,97721.59
2023-01-22T13:39:37.990Z,97729.78
2023-01-22T13:42:05.766Z,97720.81
2023-01-22T13:44:37.977Z,97724.44
2023-01-22T13:47:05.705Z,97727.41
2023-01-22T13:49:35.689Z,97733.13
2023-01-22T13:52:07.101Z,97726.31
2023-01-22T13:54:43.060Z,97728.44
2023-01-22T13:57:21.342Z,97729.47
2023-01-22T13:59:56.405Z,97732.44
2023-01-22T14:02:31.604Z,97729.09
2023-01-22T14:04:59.464Z,97737.75
2023-01-22T14:07:27.086Z,97744.91
2023-01-22T14:09:55.021Z,97736.03
2023-01-22T14:12:25.360Z,97737.91
2023-01-22T14:14:53.889Z,97748.88
2023-01-22T14:17:30.264Z,97748.06
2023-01-22T14:19:58.119Z,97744.16
2023-01-22T14:22:25.995Z,97743.97
2023-01-22T14:24:53.872Z,97746.00
2023-01-22T14:27:22.766Z,97752.16
2023-01-22T14:29:50.619Z,97749.53
2023-01-22T14:32:18.375Z,97756.22
2023-01-22T14:34:46.101Z,97751.41
2023-01-22T14:37:17.374Z,97765.19
2023-01-22T14:39:45.153Z,97759.06
2023-01-22T14:42:12.823Z,97764.88
2023-01-22T14:44:40.558Z,97764.38
2023-01-22T14:47:08.288Z,97768.28
2023-01-22T14:49:35.976Z,97762.38
2023-01-22T14:52:03.867Z,97771.53
2023-01-22T14:54:31.612Z,97766.38
2023-01-22T14:57:02.932Z,97768.75
2023-01-22T14:59:30.880Z,97764.41
2023-01-22T15:01:58.596Z,97757.47
2023-01-22T15:04:26.554Z,97761.69
2023-01-22T15:06:54.287Z,97763.25
2023-01-22T15:09:21.995Z,97772.53
2023-01-22T15:11:49.664Z,97766.16
2023-01-22T15:14:17.399Z,97772.91
2023-01-22T15:16:45.185Z,97779.31
2023-01-22T15:19:12.927Z,97790.16
2023-01-22T15:21:41.183Z,97789.91
2023-01-22T15:24:09.263Z,97788.91
2023-01-22T15:26:37.233Z,97797.63
2023-01-22T15:29:06.351Z,97786.53
2023-01-22T15:31:34.138Z,97795.47
2023-01-22T15:34:02.224Z,97794.91
2023-01-22T15:36:33.478Z,97799.69
2023-01-22T15:39:01.220Z,97804.78
2023-01-22T15:41:33.235Z,97802.00
2023-01-22T15:44:01.987Z,97805.97
2023-01-22T15:46:31.280Z,97813.91
2023-01-22T15:48:59.849Z,97804.97
2023-01-22T15:51:27.928Z,97805.97
2023-01-22T15:54:00.289Z,97807.94
2023-01-22T15:56:33.128Z,97800.22
2023-01-22T15:59:01.003Z,97806.69
2023-01-22T16:01:28.991Z,97818.06
2023-01-22T16:03:56.885Z,97825.31
2023-01-22T16:06:26.263Z,97816.19
2023-01-22T16:08:55.069Z,97814.22
2023-01-22T16:11:22.762Z,97824.84
2023-01-22T16:13:50.500Z,97830.53
2023-01-22T16:16:36.232Z,97842.63
2023-01-22T16:19:05.807Z,97842.38
2023-01-22T16:21:33.531Z,97842.16
2023-01-22T16:24:01.464Z,97852.53
2023-01-22T16:26:30.631Z,97856.66
2023-01-22T16:28:59.290Z,97859.44
2023-01-22T16:31:28.946Z,97862.94
2023-01-22T16:33:58.132Z,97877.91
2023-01-22T16:36:29.164Z,97873.44
2023-01-22T16:38:56.988Z,97870.91
2023-01-22T16:41:29.501Z,97860.75
2023-01-22T16:44:01.747Z,97869.91
2023-01-22T16:46:31.107Z,97870.47
2023-01-22T16:49:03.876Z,97872.72
2023-01-22T16:51:39.079Z,97871.94
2023-01-22T16:54:07.391Z,97871.63
2023-01-22T16:56:35.347Z,97874.03
2023-01-22T16:59:03.165Z,97874.78
2023-01-22T17:01:30.965Z,97881.44
2023-01-22T17:03:58.773Z,97882.59
2023-01-22T17:06:58.905Z,97883.53
2023-01-22T17:09:31.440Z,97880.16
2023-01-22T17:12:00.587Z,97884.63
2023-01-22T17:14:29.813Z,97892.88
2023-01-22T17:16:58.338Z,97888.44
2023-01-22T17:19:26.266Z,97899.06
2023-01-22T17:21:55.316Z,97896.28
2023-01-22T17:24:23.173Z,97904.94
2023-01-22T17:26:51.761Z,97901.84
2023-01-22T17:29:19.631Z,97898.94
2023-01-22T17:31:48.509Z,97909.84
2023-01-22T17:34:16.740Z,97902.59
2023-01-22T17:36:44.541Z,97901.84
2023-01-22T17:39:14.545Z,97906.81
2023-01-22T17:41:42.582Z,97910.78
2023-01-22T17:44:10.607Z,97911.88
2023-01-22T17:46:38.626Z,97914.97
2023-01-22T17:49:06.444Z,97905.34
2023-01-22T17:51:34.537Z,97903.94
2023-01-22T17:54:03.261Z,97906.19
2023-01-22T17:56:35.807Z,97919.63
2023-01-22T17:59:05.445Z,97909.94
2023-01-22T18:01:33.985Z,97905.69
2023-01-22T18:04:03.434Z,97920.22
2023-01-22T18:06:31.215Z,97933.19
2023-01-22T18:08:59.163Z,97939.16
2023-01-22T18:11:27.927Z,97942.50
2023-01-22T18:13:57.217Z,97939.84
2023-01-22T18:16:26.358Z,97940.19
2023-01-22T18:18:54.582Z,97946.69
2023-01-22T18:21:23.178Z,97955.03
2023-01-22T18:23:51.040Z,97951.66
2023-01-22T18:26:26.663Z,97956.03
2023-01-22T18:28:55.904Z,97972.13
2023-01-22T18:31:25.437Z,97963.50
2023-01-22T18:33:54.334Z,97951.94
2023-01-22T18:36:24.838Z,97949.91
2023-01-22T18:38:52.797Z,97951.13
2023-01-22T18:41:23.960Z,97957.69
2023-01-22T18:43:56.228Z,97966.88
2023-01-22T18:46:25.210Z,97966.97
2023-01-22T18:48:54.811Z,97974.84
2023-01-22T18:51:22.729Z,97970.56
2023-01-22T18:53:50.620Z,97973.13
2023-01-22T18:56:18.495Z,97976.44
2023-01-22T18:58:46.373Z,97976.16
2023-01-22T19:01:22.919Z,97979.47
2023-01-22T19:03:52.298Z,97988.59
2023-01-22T19:06:22.666Z,97981.34
2023-01-22T19:08:57.145Z,97980.22
2023-01-22T19:11:25.110Z,97988.91
2023-01-22T19:13:53.789Z,97992.16
2023-01-22T19:16:21.821Z,97981.81
2023-01-22T19:18:56.543Z,97992.50
2023-01-22T19:21:24.883Z,97992.78
2023-01-22T19:23:57.637Z,97992.91
2023-01-22T19:26:32.006Z,97987.75
2023-01-22T19:29:01.994Z,97994.72
2023-01-22T19:31:34.181Z,97988.41
2023-01-22T19:34:02.362Z,97986.63
2023-01-22T19:36:31.310Z,97983.56
2023-01-22T19:39:00.017Z,97981.59
2023-01-22T19:41:28.130Z,97974.06
2023-01-22T19:43:57.019Z,97983.56
2023-01-22T19:46:26.044Z,97985.97
2023-01-22T19:48:54.119Z,97979.16
2023-01-22T19:51:22.506Z,97985.19
2023-01-22T19:53:50.396Z,97982.72
2023-01-22T19:56:21.011Z,97991.22
2023-01-22T19:58:49.006Z,97987.06
2023-01-22T20:01:17.403Z,97990.75
2023-01-22T20:03:45.223Z,97990.84
2023-01-22T20:06:13.651Z,97985.88
2023-01-22T20:08:41.372Z,97987.00
2023-01-22T20:11:10.090Z,98000.22
2023-01-22T20:13:37.976Z,97994.34
2023-01-22T20:16:06.881Z,97991.63
2023-01-22T20:18:34.744Z,97999.34
2023-01-22T20:21:02.624Z,98000.63
2023-01-22T20:23:30.393Z,97997.97
2023-01-22T20:25:59.929Z,97997.44
2023-01-22T20:28:27.623Z,97997.69
2023-01-22T20:30:59.596Z,97992.59
2023-01-22T20:33:27.669Z,97991.88
2023-01-22T20:35:59.528Z,97998.38
2023-01-22T20:38:27.663Z,97995.00
2023-01-22T20:40:55.477Z,97995.13
2023-01-22T20:43:23.171Z,98000.59
2023-01-22T20:46:06.398Z,97995.50
2023-01-22T20:48:34.441Z,97997.53
2023-01-22T20:51:02.209Z,98001.41
2023-01-22T20:53:30.116Z,98006.25
2023-01-22T20:56:05.566Z,98014.50
2023-01-22T20:58:33.707Z,98007.34
2023-01-22T21:01:05.632Z,98001.50
2023-01-22T21:03:33.597Z,98010.00
2023-01-22T21:06:05.075Z,98001.59
2023-01-22T21:08:32.766Z,98000.09
2023-01-22T21:11:02.511Z,97995.16
2023-01-22T21:13:30.235Z,98005.41
2023-01-22T21:15:58.061Z,97999.22
2023-01-22T21:18:25.796Z,98002.91
2023-01-22T21:20:53.593Z,98003.19
2023-01-22T21:23:21.293Z,97993.22
2023-01-22T21:25:48.982Z,97985.88
2023-01-22T21:28:16.685Z,97995.84
2023-01-22T21:30:44.471Z,97997.44
2023-01-22T21:33:12.176Z,97989.50
2023-01-22T21:35:39.863Z,97981.09
2023-01-22T21:38:07.598Z,97982.59
2023-01-22T21:40:35.360Z,97991.41
2023-01-22T21:43:21.865Z,97996.06
2023-01-22T21:46:15.732Z,97997.53
2023-01-22T21:48:43.455Z,98000.78
2023-01-22T21:51:11.348Z,97997.28
2023-01-22T21:53:39.111Z,97999.19
2023-01-22T21:56:07.281Z,97996.28
2023-01-22T21:58:34.970Z,97997.97
2023-01-22T22:01:06.946Z,97993.22
2023-01-22T22:03:35.181Z,97992.66
2023-01-22T22:06:02.908Z,97989.75
2023-01-22T22:08:30.574Z,97995.22
2023-01-22T22:10:58.302Z,98000.00
2023-01-22T22:13:25.997Z,97992.16
2023-01-22T22:15:53.779Z,97995.50
2023-01-22T22:18:21.486Z,97985.69
2023-01-22T22:20:49.204Z,97983.59
2023-01-22T22:23:16.919Z,97981.03
2023-01-22T22:25:48.843Z,97988.00
2023-01-22T22:28:17.726Z,97989.44
2023-01-22T22:30:45.548Z,97993.56
2023-01-22T22:33:13.282Z,97994.88
2023-01-22T22:35:41.145Z,98006.38
2023-01-22T22:38:08.808Z,98002.91
2023-01-22T22:40:36.571Z,98013.28
2023-01-22T22:43:04.295Z,98004.56
2023-01-22T22:45:35.943Z,98003.06
2023-01-22T22:48:03.954Z,98001.94
2023-01-22T22:50:31.636Z,98000.28
2023-01-22T22:52:59.292Z,98001.75
2023-01-22T22:55:28.733Z,98001.53
2023-01-22T22:57:56.398Z,97997.34
2023-01-22T23:00:24.467Z,97999.41
2023-01-22T23:02:52.142Z,98004.25
2023-01-22T23:05:19.906Z,97998.91
2023-01-22T23:07:47.599Z,97998.41
2023-01-22T23:10:28.903Z,98001.75
2023-01-22T23:13:01.340Z,97998.41
2023-01-22T23:15:29.899Z,98014.00
2023-01-22T23:17:58.099Z,98013.25
2023-01-22T23:20:25.872Z,98015.66
2023-01-22T23:22:55.283Z,98021.47
2023-01-22T23:25:23.015Z,98021.84
2023-01-22T23:27:51.150Z,98017.16
2023-01-22T23:30:19.228Z,98016.44
2023-01-22T23:32:47.135Z,98015.72
2023-01-22T23:35:14.855Z,98030.59
2023-01-22T23:37:42.540Z,98022.00
2023-01-22T23:40:11.088Z,98025.13
2023-01-22T23:42:38.813Z,98023.44
2023-01-22T23:45:07.165Z,98041.28
2023-01-22T23:47:34.838Z,98034.31
2023-01-22T23:50:02.588Z,98025.63
2023-01-22T23:52:30.253Z,98034.47
2023-01-22T23:54:58.084Z,98045.66
2023-01-22T23:57:25.812Z,98036.78
2023-01-22T23:59:53.514Z,98038.00
